createdAt,value
2023-04-19T05:03:00.284Z,69.20
2023-04-19T05:08:05.445Z,69.80
2023-04-19T05:13:08.883Z,70.30
2023-04-19T05:18:14.179Z,70.60
2023-04-19T05:23:18.674Z,70.50
2023-04-19T05:28:22.098Z,70.70
2023-04-19T05:33:29.976Z,72.30
2023-04-19T05:38:33.644Z,68.80
2023-04-19T05:43:38.348Z,66.70
2023-04-19T05:48:44.644Z,66.60
2023-04-19T05:54:12.464Z,66.60
2023-04-19T05:59:16.485Z,67.40
2023-04-19T06:04:21.862Z,68.10
2023-04-19T06:09:25.743Z,66.80
2023-04-19T06:14:29.312Z,66.50
2023-04-19T06:19:34.997Z,66.20
2023-04-19T06:24:38.295Z,66.00
2023-04-19T06:29:41.590Z,66.00
2023-04-19T06:34:46.423Z,65.90
2023-04-19T06:39:50.273Z,65.40
2023-04-19T06:44:53.667Z,65.30
2023-04-19T06:49:58.521Z,65.10
2023-04-19T06:55:01.864Z,65.30
2023-04-19T07:00:06.697Z,65.00
2023-04-19T07:05:12.945Z,65.40
2023-04-19T07:10:16.340Z,65.00
2023-04-19T07:15:19.807Z,65.10
2023-04-19T07:20:24.566Z,65.30
2023-04-19T07:25:27.944Z,65.00
2023-04-19T07:30:31.324Z,65.00
2023-04-19T07:35:36.633Z,64.80
2023-04-19T07:40:39.958Z,64.60
2023-04-19T07:45:43.358Z,64.60
2023-04-19T07:50:48.131Z,64.70
2023-04-19T07:55:51.604Z,64.70
2023-04-19T08:00:54.996Z,64.90
2023-04-19T08:05:59.692Z,64.70
2023-04-19T08:11:03.323Z,64.50
2023-04-19T08:21:14.657Z,64.90
2023-04-19T08:26:17.963Z,64.10
2023-04-19T08:31:21.499Z,64.10
2023-04-19T08:36:37.086Z,64.00
2023-04-19T08:41:42.985Z,64.00
2023-04-19T08:46:48.546Z,63.80
2023-04-19T08:51:53.323Z,63.50
2023-04-19T08:56:58.104Z,62.90
2023-04-19T09:02:02.264Z,62.10
2023-04-19T09:07:08.301Z,61.00
2023-04-19T09:12:17.304Z,60.10
2023-04-19T09:17:20.791Z,59.00
2023-04-19T09:22:25.779Z,57.90
2023-04-19T09:27:30.372Z,57.10
2023-04-19T09:32:46.672Z,56.40
2023-04-19T09:38:06.448Z,55.80
2023-04-19T09:43:29.076Z,55.20
2023-04-19T09:48:33.546Z,54.20
2023-04-19T09:53:39.441Z,54.10
2023-04-19T09:58:51.184Z,53.70
2023-04-19T10:04:03.629Z,53.20
2023-04-19T10:09:20.559Z,52.80
2023-04-19T10:14:24.614Z,52.50
2023-04-19T10:19:28.768Z,52.50
2023-04-19T10:24:34.505Z,52.30
2023-04-19T10:29:56.741Z,51.80
2023-04-19T10:35:02.869Z,52.30
2023-04-19T10:40:08.709Z,52.60
2023-04-19T10:45:30.877Z,52.60
2023-04-19T10:50:49.028Z,52.10
2023-04-19T10:55:53.748Z,51.50
2023-04-19T11:01:11.995Z,51.20
2023-04-19T11:06:20.121Z,51.00
2023-04-19T11:11:26.342Z,50.80
2023-04-19T11:16:44.458Z,50.80
2023-04-19T11:21:49.845Z,50.80
2023-04-19T11:26:59.977Z,50.90
2023-04-19T11:32:03.383Z,50.30
2023-04-19T11:37:06.749Z,49.60
2023-04-19T11:42:19.532Z,49.40
2023-04-19T11:47:22.985Z,49.10
2023-04-19T11:52:27.477Z,48.70
2023-04-19T11:57:32.243Z,48.40
2023-04-19T12:02:38.617Z,48.40
2023-04-19T12:08:01.192Z,48.90
2023-04-19T12:13:19.104Z,48.70
2023-04-19T12:18:22.438Z,48.10
2023-04-19T12:23:25.771Z,47.40
2023-04-19T12:28:30.445Z,47.10
2023-04-19T12:33:34.096Z,47.50
2023-04-19T12:38:37.655Z,48.00
2023-04-19T12:43:42.369Z,48.20
2023-04-19T12:48:46.183Z,49.00
2023-04-19T12:53:50.469Z,48.00
2023-04-19T12:58:55.300Z,47.50
2023-04-19T13:03:59.525Z,47.20
2023-04-19T13:09:11.396Z,47.20
2023-04-19T13:14:19.146Z,47.00
2023-04-19T13:19:22.624Z,46.00
2023-04-19T13:24:26.025Z,45.80
2023-04-19T13:29:30.691Z,46.00
2023-04-19T13:34:34.061Z,45.40
2023-04-19T13:39:38.014Z,44.90
2023-04-19T13:44:42.861Z,45.50
2023-04-19T13:49:52.070Z,45.00
2023-04-19T13:54:55.425Z,45.40
2023-04-19T14:00:00.159Z,45.90
2023-04-19T14:05:04.668Z,46.00
2023-04-19T14:10:08.605Z,46.10
2023-04-19T14:15:14.092Z,46.40
2023-04-19T14:20:17.437Z,47.20
2023-04-19T14:25:20.938Z,46.90
2023-04-19T14:30:27.214Z,47.10
2023-04-19T14:35:31.199Z,47.30
2023-04-19T14:40:34.925Z,46.90
2023-04-19T14:45:39.613Z,47.50
2023-04-19T14:50:43.157Z,47.80
2023-04-19T14:55:46.467Z,48.50
2023-04-19T15:00:51.372Z,48.40
2023-04-19T15:05:54.834Z,48.50
2023-04-19T15:10:58.244Z,48.10
2023-04-19T15:16:04.028Z,47.50
2023-04-19T15:21:07.585Z,46.80
2023-04-19T15:26:10.902Z,47.00
2023-04-19T15:31:16.480Z,47.20
2023-04-19T15:36:19.937Z,48.00
2023-04-19T15:41:23.228Z,48.00
2023-04-19T15:46:27.982Z,48.20
2023-04-19T15:51:31.665Z,48.00
2023-04-19T15:56:35.268Z,47.70
2023-04-19T16:01:40.133Z,47.40
2023-04-19T16:06:43.540Z,47.60
2023-04-19T16:11:46.866Z,48.10
2023-04-19T16:16:53.783Z,48.00
2023-04-19T16:21:57.322Z,48.00
2023-04-19T16:27:00.855Z,48.10
2023-04-19T16:32:05.822Z,48.00
2023-04-19T16:37:09.200Z,47.80
2023-04-19T16:42:12.490Z,48.20
2023-04-19T16:47:17.166Z,48.50
2023-04-19T16:52:20.481Z,48.60
2023-04-19T16:57:24.070Z,48.80
2023-04-19T17:02:28.890Z,48.90
2023-04-19T17:07:32.374Z,49.00
2023-04-19T17:12:35.797Z,49.10
2023-04-19T17:17:41.069Z,49.00
2023-04-19T17:22:44.408Z,49.50
2023-04-19T17:27:47.747Z,48.90
2023-04-19T17:32:52.503Z,49.00
2023-04-19T17:37:55.996Z,49.10
2023-04-19T17:42:59.339Z,49.00
2023-04-19T17:48:04.069Z,49.20
2023-04-19T17:53:07.479Z,49.20
2023-04-19T17:58:10.773Z,50.00
2023-04-19T18:03:15.970Z,49.40
2023-04-19T18:08:19.445Z,49.50
2023-04-19T18:13:22.739Z,49.60
2023-04-19T18:18:27.580Z,49.70
2023-04-19T18:23:30.891Z,50.00
2023-04-19T18:28:35.510Z,50.10
2023-04-19T18:33:40.230Z,50.00
2023-04-19T18:38:43.658Z,50.20
2023-04-19T18:44:00.658Z,50.30
2023-04-19T18:49:11.629Z,50.40
2023-04-19T18:54:15.041Z,50.40
2023-04-19T18:59:18.583Z,50.90
2023-04-19T19:09:30.364Z,51.20
2023-04-19T19:14:35.691Z,51.30
2023-04-19T19:19:40.547Z,51.50
2023-04-19T19:24:43.826Z,51.70
2023-04-19T19:29:47.771Z,51.90
2023-04-19T19:34:56.536Z,52.10
2023-04-19T19:40:06.441Z,52.20
2023-04-19T19:45:10.547Z,52.30
2023-04-19T19:55:21.469Z,52.60
2023-04-19T20:00:44.034Z,52.70
2023-04-19T20:05:50.142Z,52.90
2023-04-19T20:10:53.737Z,53.10
2023-04-19T20:15:58.770Z,53.30
2023-04-19T20:21:03.526Z,53.50
2023-04-19T20:26:06.882Z,53.60
2023-04-19T20:31:10.262Z,53.80
2023-04-19T20:36:16.423Z,53.80
2023-04-19T20:41:22.221Z,54.10
2023-04-19T20:46:26.037Z,54.10
2023-04-19T20:51:31.616Z,54.10
2023-04-19T20:56:34.930Z,54.10
2023-04-19T21:01:38.364Z,54.00
2023-04-19T21:06:43.030Z,53.90
2023-04-19T21:11:46.417Z,53.90
2023-04-19T21:16:49.697Z,53.80
2023-04-19T21:21:54.481Z,54.20
2023-04-19T21:26:57.798Z,54.30
2023-04-19T21:32:01.321Z,54.50
2023-04-19T21:37:06.275Z,54.70
2023-04-19T21:42:09.636Z,54.80
2023-04-19T21:47:13.098Z,55.00
2023-04-19T21:52:17.971Z,54.90
2023-04-19T21:57:22.111Z,55.10
2023-04-19T22:02:25.548Z,55.10
2023-04-19T22:07:31.299Z,55.20
2023-04-19T22:12:37.346Z,55.30
2023-04-19T22:17:44.390Z,55.40
2023-04-19T22:22:49.089Z,55.50
2023-04-19T22:27:52.648Z,55.70
